Time;durP1;ratioP1;P1;durP2;ratioP2;P2;SDS_P1;SDS_P2;PMS_P1;PMS_P2;Temp;Humidity;BMP_temperature;BMP_pressure;BME280_temperature;BME280_humidity;BME280_pressure;Samples;Min_cycle;Max_cycle;Signal;HPM_P1;HPM_P2
2021/10/25 00:00:12;;;;;;;2.70;2.50;;;;;;;19.87;59.86;101038.72;;;;-51
2021/10/25 00:03:12;;;;;;;2.48;2.28;;;;;;;19.86;59.82;101038.23;;;;-51
2021/10/25 00:06:12;;;;;;;2.52;2.32;;;;;;;19.85;59.83;101041.38;;;;-51
2021/10/25 00:09:12;;;;;;;2.57;2.37;;;;;;;19.85;59.99;101040.23;;;;-51
2021/10/25 00:12:12;;;;;;;3.19;2.31;;;;;;;19.85;59.86;101038.94;;;;-51
2021/10/25 00:15:12;;;;;;;3.31;2.40;;;;;;;19.83;59.95;101038.18;;;;-51
2021/10/25 00:18:12;;;;;;;2.63;2.43;;;;;;;19.82;59.94;101032.48;;;;-51
2021/10/25 00:21:12;;;;;;;2.53;2.33;;;;;;;19.81;59.95;101035.22;;;;-51
2021/10/25 00:24:12;;;;;;;2.57;2.33;;;;;;;19.80;59.97;101035.30;;;;-51
2021/10/25 00:27:12;;;;;;;2.52;2.32;;;;;;;19.79;59.98;101035.60;;;;-51
2021/10/25 00:30:12;;;;;;;2.47;2.26;;;;;;;19.78;59.91;101032.67;;;;-51
2021/10/25 00:33:12;;;;;;;2.81;2.53;;;;;;;19.77;59.98;101034.02;;;;-51
2021/10/25 00:36:12;;;;;;;2.91;2.51;;;;;;;19.77;60.03;101031.34;;;;-51
2021/10/25 00:39:12;;;;;;;2.58;2.38;;;;;;;19.76;59.98;101031.75;;;;-51
2021/10/25 00:42:12;;;;;;;2.77;2.40;;;;;;;19.75;59.98;101030.17;;;;-51
2021/10/25 00:45:12;;;;;;;2.59;2.39;;;;;;;19.74;59.97;101031.88;;;;-53
2021/10/25 00:48:12;;;;;;;2.44;2.24;;;;;;;19.73;60.07;101028.84;;;;-53
2021/10/25 00:51:12;;;;;;;2.57;2.37;;;;;;;19.72;59.93;101026.00;;;;-53
2021/10/25 00:54:12;;;;;;;2.59;2.39;;;;;;;19.72;59.96;101026.00;;;;-52
2021/10/25 00:57:12;;;;;;;2.57;2.37;;;;;;;19.70;59.93;101023.91;;;;-52
2021/10/25 01:00:12;;;;;;;2.38;2.18;;;;;;;19.70;60.00;101030.48;;;;-52
2021/10/25 01:03:12;;;;;;;2.55;2.35;;;;;;;19.69;59.92;101029.40;;;;-53
2021/10/25 01:06:12;;;;;;;2.48;2.27;;;;;;;19.67;59.98;101030.22;;;;-53
2021/10/25 01:09:12;;;;;;;2.60;2.40;;;;;;;19.65;59.90;101025.31;;;;-53
2021/10/25 01:12:12;;;;;;;2.63;2.21;;;;;;;19.66;59.96;101027.26;;;;-52
2021/10/25 01:15:12;;;;;;;2.47;2.27;;;;;;;19.64;59.95;101022.02;;;;-53
2021/10/25 01:18:12;;;;;;;2.59;2.39;;;;;;;19.63;59.97;101026.58;;;;-52
2021/10/25 01:21:12;;;;;;;2.43;2.23;;;;;;;19.63;60.03;101028.04;;;;-53
2021/10/25 01:24:12;;;;;;;2.51;2.31;;;;;;;19.63;59.93;101029.80;;;;-53
2021/10/25 01:27:12;;;;;;;2.40;2.20;;;;;;;19.62;59.90;101029.80;;;;-52
2021/10/25 01:30:12;;;;;;;2.57;2.37;;;;;;;19.61;60.04;101031.15;;;;-53
2021/10/25 01:33:14;;;;;;;2.39;2.19;;;;;;;19.59;60.03;101027.58;;;;-52
2021/10/25 01:36:12;;;;;;;2.35;2.15;;;;;;;19.58;59.94;101027.95;;;;-53
2021/10/25 01:39:12;;;;;;;2.75;2.30;;;;;;;19.58;59.95;101021.94;;;;-52
2021/10/25 01:42:12;;;;;;;2.49;2.28;;;;;;;19.57;60.05;101021.12;;;;-53
2021/10/25 01:45:13;;;;;;;2.45;2.25;;;;;;;19.57;60.03;101022.17;;;;-53
2021/10/25 01:48:12;;;;;;;2.44;2.24;;;;;;;19.56;59.95;101020.44;;;;-52
2021/10/25 01:51:12;;;;;;;2.89;2.23;;;;;;;19.57;59.96;101024.05;;;;-53
2021/10/25 01:54:12;;;;;;;2.34;2.14;;;;;;;19.56;60.00;101015.72;;;;-53
2021/10/25 01:57:12;;;;;;;2.31;2.11;;;;;;;19.55;59.97;101019.19;;;;-52
2021/10/25 02:00:12;;;;;;;2.50;2.30;;;;;;;19.54;59.97;101015.94;;;;-52
2021/10/25 02:03:12;;;;;;;2.48;2.28;;;;;;;19.53;59.93;101010.65;;;;-53
2021/10/25 02:06:12;;;;;;;2.46;2.26;;;;;;;19.52;59.99;101011.92;;;;-51
2021/10/25 02:09:12;;;;;;;2.39;2.19;;;;;;;19.53;59.97;101016.02;;;;-51
2021/10/25 02:12:12;;;;;;;2.46;2.26;;;;;;;19.51;60.00;101012.25;;;;-51
2021/10/25 02:15:12;;;;;;;2.27;2.07;;;;;;;19.50;59.95;101015.22;;;;-50
2021/10/25 02:18:12;;;;;;;2.34;2.10;;;;;;;19.50;59.94;101011.89;;;;-50
2021/10/25 02:21:12;;;;;;;2.36;2.11;;;;;;;19.48;59.96;101011.94;;;;-51
2021/10/25 02:24:12;;;;;;;2.30;2.10;;;;;;;19.48;60.06;101012.34;;;;-51
2021/10/25 02:27:12;;;;;;;2.42;2.22;;;;;;;19.47;60.01;101014.62;;;;-51
2021/10/25 02:30:12;;;;;;;2.53;2.33;;;;;;;19.47;60.03;101014.30;;;;-51
2021/10/25 02:33:12;;;;;;;2.43;2.23;;;;;;;19.47;60.06;101016.00;;;;-51
2021/10/25 02:36:12;;;;;;;2.43;2.23;;;;;;;19.45;60.11;101017.44;;;;-51
2021/10/25 02:39:12;;;;;;;2.53;2.33;;;;;;;19.44;59.96;101012.88;;;;-51
2021/10/25 02:42:12;;;;;;;2.28;2.08;;;;;;;19.45;59.99;101008.66;;;;-51
2021/10/25 02:45:12;;;;;;;2.42;2.21;;;;;;;19.43;59.95;101001.47;;;;-51
2021/10/25 02:48:12;;;;;;;2.39;2.19;;;;;;;19.43;59.98;101002.28;;;;-51
2021/10/25 02:51:12;;;;;;;2.49;2.29;;;;;;;19.42;60.00;101000.70;;;;-51
2021/10/25 02:54:12;;;;;;;2.41;2.21;;;;;;;19.41;59.90;100999.25;;;;-50
2021/10/25 02:57:14;;;;;;;2.42;2.22;;;;;;;19.40;60.02;100996.41;;;;-51
2021/10/25 03:00:12;;;;;;;2.22;2.02;;;;;;;19.40;60.04;100997.87;;;;-51
2021/10/25 03:03:12;;;;;;;2.49;2.29;;;;;;;19.39;59.92;100998.64;;;;-51
2021/10/25 03:06:12;;;;;;;2.55;2.25;;;;;;;19.37;60.01;100996.98;;;;-51
2021/10/25 03:09:12;;;;;;;2.39;2.19;;;;;;;19.38;59.97;100996.75;;;;-51
2021/10/25 03:12:12;;;;;;;2.35;2.15;;;;;;;19.37;59.90;101000.16;;;;-53
2021/10/25 03:15:12;;;;;;;2.33;2.13;;;;;;;19.36;59.98;100995.52;;;;-53
2021/10/25 03:18:13;;;;;;;2.40;2.20;;;;;;;19.34;60.02;100989.23;;;;-53
2021/10/25 03:21:12;;;;;;;2.37;2.17;;;;;;;19.34;60.05;100988.75;;;;-53
2021/10/25 03:24:12;;;;;;;2.38;2.18;;;;;;;19.34;59.95;100986.03;;;;-53
2021/10/25 03:27:12;;;;;;;2.61;2.31;;;;;;;19.32;60.02;100982.37;;;;-53
2021/10/25 03:30:12;;;;;;;2.27;2.07;;;;;;;19.32;60.00;100980.40;;;;-52
2021/10/25 03:33:12;;;;;;;2.35;2.15;;;;;;;19.31;60.02;100983.41;;;;-52
2021/10/25 03:36:12;;;;;;;2.43;2.23;;;;;;;19.30;60.04;100983.65;;;;-53
2021/10/25 03:39:13;;;;;;;2.26;2.07;;;;;;;19.29;59.99;100985.97;;;;-53
2021/10/25 03:42:17;;;;;;;2.42;2.22;;;;;;;19.28;60.05;100981.26;;;;-53
2021/10/25 03:45:18;;;;;;;2.29;2.09;;;;;;;19.28;59.99;100978.17;;;;-52
2021/10/25 03:48:19;;;;;;;2.20;2.00;;;;;;;19.27;60.09;100967.73;;;;-52
2021/10/25 03:51:14;;;;;;;2.30;2.10;;;;;;;19.27;60.01;100967.73;;;;-53
2021/10/25 03:54:29;;;;;;;2.43;2.23;;;;;;;19.26;60.01;100965.79;;;;-52
2021/10/25 04:28:15;;;;;;;2.43;2.23;;;;;;;19.21;59.97;100958.30;;;;-50
2021/10/25 04:31:12;;;;;;;2.35;2.15;;;;;;;19.20;59.98;100957.48;;;;-51
2021/10/25 04:34:12;;;;;;;2.21;2.01;;;;;;;19.20;59.92;100963.17;;;;-51
2021/10/25 04:37:12;;;;;;;2.19;2.07;;;;;;;19.21;59.89;100969.34;;;;-50
2021/10/25 04:40:13;;;;;;;2.81;2.11;;;;;;;19.20;59.85;100964.15;;;;-51
2021/10/25 04:43:12;;;;;;;2.29;2.09;;;;;;;19.20;59.84;100966.34;;;;-47
2021/10/25 04:46:12;;;;;;;2.32;2.13;;;;;;;19.21;59.89;100974.39;;;;-47
2021/10/25 04:49:12;;;;;;;2.23;2.03;;;;;;;19.22;59.99;100968.16;;;;-48
2021/10/25 04:52:12;;;;;;;2.11;1.91;;;;;;;19.23;59.94;100966.45;;;;-47
2021/10/25 04:55:12;;;;;;;2.14;1.94;;;;;;;19.25;59.96;100970.95;;;;-47
2021/10/25 04:58:12;;;;;;;2.16;1.96;;;;;;;19.27;59.86;100970.34;;;;-47
2021/10/25 05:01:12;;;;;;;2.20;2.00;;;;;;;19.29;60.11;100961.59;;;;-47
2021/10/25 05:04:12;;;;;;;2.00;1.90;;;;;;;19.33;60.19;100970.27;;;;-47
2021/10/25 05:07:12;;;;;;;2.23;2.03;;;;;;;19.34;60.35;100977.78;;;;-47
2021/10/25 05:10:12;;;;;;;2.12;1.92;;;;;;;19.36;60.31;100973.83;;;;-47
2021/10/25 05:13:12;;;;;;;2.27;2.07;;;;;;;19.40;60.26;100971.70;;;;-47
2021/10/25 05:16:12;;;;;;;2.00;1.90;;;;;;;19.43;60.34;100965.70;;;;-48
2021/10/25 05:19:12;;;;;;;1.91;1.81;;;;;;;19.45;60.28;100956.23;;;;-47
2021/10/25 05:22:12;;;;;;;2.15;1.95;;;;;;;19.46;60.25;100951.92;;;;-47
2021/10/25 05:25:12;;;;;;;2.03;1.93;;;;;;;19.47;60.21;100951.05;;;;-47
2021/10/25 05:28:12;;;;;;;2.17;2.01;;;;;;;19.49;60.19;100956.61;;;;-47
2021/10/25 05:31:12;;;;;;;2.06;1.94;;;;;;;19.50;60.26;100956.45;;;;-47
2021/10/25 05:34:12;;;;;;;1.99;1.87;;;;;;;19.51;60.23;100952.73;;;;-50
2021/10/25 05:37:12;;;;;;;2.05;1.95;;;;;;;19.53;60.02;100956.19;;;;-50
2021/10/25 05:40:12;;;;;;;1.79;1.69;;;;;;;19.54;60.10;100954.88;;;;-51
2021/10/25 05:43:12;;;;;;;1.99;1.87;;;;;;;19.55;60.03;100952.14;;;;-50
2021/10/25 05:46:12;;;;;;;1.90;1.80;;;;;;;19.55;60.19;100953.66;;;;-53
2021/10/25 05:49:12;;;;;;;2.07;1.91;;;;;;;19.55;60.05;100949.55;;;;-53
2021/10/25 05:52:12;;;;;;;1.80;1.70;;;;;;;19.56;59.90;100951.41;;;;-59
2021/10/25 05:55:13;;;;;;;3.46;3.16;;;;;;;19.41;56.25;100955.27;;;;-52
2021/10/25 05:58:17;;;;;;;3.20;2.90;;;;;;;19.43;57.66;100957.50;;;;-59
2021/10/25 06:01:18;;;;;;;3.21;2.91;;;;;;;19.45;57.85;100965.09;;;;-50
2021/10/25 06:04:13;;;;;;;4.24;2.85;;;;;;;19.46;58.19;100968.26;;;;-51
2021/10/25 06:07:12;;;;;;;2.84;2.64;;;;;;;19.48;58.54;100969.42;;;;-51
2021/10/25 06:10:14;;;;;;;3.03;2.30;;;;;;;19.47;58.74;100971.22;;;;-48
2021/10/25 06:13:19;;;;;;;3.22;2.19;;;;;;;19.49;58.87;100962.63;;;;-47
2021/10/25 06:16:14;;;;;;;2.36;2.16;;;;;;;19.48;59.11;100971.13;;;;-47
2021/10/25 06:19:13;;;;;;;2.31;2.11;;;;;;;19.49;59.22;100978.23;;;;-59
2021/10/25 06:22:12;;;;;;;2.48;2.28;;;;;;;19.48;59.27;100983.00;;;;-59
2021/10/25 06:25:13;;;;;;;2.52;2.32;;;;;;;19.49;59.14;100987.83;;;;-59
2021/10/25 06:28:14;;;;;;;2.27;2.07;;;;;;;19.48;59.28;100991.29;;;;-53
2021/10/25 06:31:12;;;;;;;2.33;2.13;;;;;;;19.49;59.42;100997.58;;;;-51
2021/10/25 06:34:20;;;;;;;2.97;2.17;;;;;;;19.48;59.38;100982.11;;;;-51
2021/10/25 06:37:12;;;;;;;2.61;2.22;;;;;;;19.47;59.35;100978.45;;;;-59
2021/10/25 06:40:12;;;;;;;2.27;2.08;;;;;;;19.48;59.32;100981.45;;;;-59
2021/10/25 06:43:12;;;;;;;2.40;2.20;;;;;;;19.47;59.23;100966.74;;;;-59
2021/10/25 06:46:12;;;;;;;2.43;2.23;;;;;;;19.47;59.18;100968.94;;;;-50
2021/10/25 06:49:12;;;;;;;2.11;1.91;;;;;;;19.47;59.30;100970.08;;;;-59
2021/10/25 06:52:12;;;;;;;2.39;2.19;;;;;;;19.47;59.09;100975.44;;;;-59
2021/10/25 06:55:12;;;;;;;2.30;2.10;;;;;;;19.46;59.17;100984.84;;;;-59
2021/10/25 06:58:12;;;;;;;2.35;2.15;;;;;;;19.45;59.33;100990.20;;;;-60
2021/10/25 07:01:12;;;;;;;2.28;2.08;;;;;;;19.45;59.37;100992.89;;;;-59
2021/10/25 07:04:12;;;;;;;2.37;2.17;;;;;;;19.44;59.21;100988.66;;;;-59
2021/10/25 07:07:12;;;;;;;2.35;2.15;;;;;;;19.44;59.18;100995.48;;;;-47
2021/10/25 07:10:12;;;;;;;2.30;2.05;;;;;;;19.43;59.19;100994.00;;;;-47
2021/10/25 07:13:12;;;;;;;2.46;2.26;;;;;;;19.42;59.33;100997.95;;;;-47
2021/10/25 07:16:17;;;;;;;2.30;2.10;;;;;;;19.42;59.39;101001.52;;;;-53
2021/10/25 07:19:22;;;;;;;2.23;2.03;;;;;;;19.42;59.26;101007.62;;;;-60
2021/10/25 07:22:43;;;;;;;2.51;2.17;;;;;;;19.42;59.39;101007.38;;;;-60
2021/10/25 08:00:30;;;;;;;2.30;2.10;;;;;;;19.33;59.27;101008.06;;;;-52
2021/10/25 08:06:18;;;;;;;2.23;2.03;;;;;;;19.33;59.26;101013.50;;;;-53
2021/10/25 08:09:21;;;;;;;2.37;2.17;;;;;;;19.32;59.32;101011.77;;;;-53
2021/10/25 08:12:14;;;;;;;2.31;2.11;;;;;;;19.31;59.29;101003.96;;;;-50
2021/10/25 08:15:19;;;;;;;2.25;2.05;;;;;;;19.31;59.40;101001.04;;;;-50
2021/10/25 08:18:22;;;;;;;2.35;2.13;;;;;;;19.32;59.40;100999.66;;;;-48
2021/10/25 08:21:12;;;;;;;3.85;2.12;;;;;;;19.32;59.48;100998.71;;;;-48
2021/10/25 08:24:12;;;;;;;2.61;2.09;;;;;;;19.32;59.55;101002.09;;;;-47
2021/10/25 08:27:13;;;;;;;3.65;2.01;;;;;;;19.33;59.49;101003.75;;;;-47
2021/10/25 08:30:16;;;;;;;3.28;2.01;;;;;;;19.34;59.84;101006.87;;;;-50
2021/10/25 08:33:27;;;;;;;2.30;2.10;;;;;;;19.34;59.79;101002.56;;;;-50
2021/10/25 08:36:16;;;;;;;2.65;2.30;;;;;;;19.35;59.70;100995.66;;;;-51
2021/10/25 08:42:12;;;;;;;2.35;2.15;;;;;;;19.37;59.86;100992.52;;;;-48
2021/10/25 08:45:13;;;;;;;2.33;2.08;;;;;;;19.39;59.46;100991.41;;;;-51
2021/10/25 08:48:12;;;;;;;3.05;2.23;;;;;;;19.40;59.80;100997.51;;;;-48
2021/10/25 08:51:12;;;;;;;2.77;2.20;;;;;;;19.40;59.87;100994.13;;;;-50
2021/10/25 08:54:12;;;;;;;4.21;2.21;;;;;;;19.41;59.92;100991.12;;;;-49
2021/10/25 08:57:12;;;;;;;4.31;2.29;;;;;;;19.42;59.92;100996.44;;;;-50
2021/10/25 09:00:12;;;;;;;2.51;2.27;;;;;;;19.43;59.95;100995.38;;;;-48
2021/10/25 09:03:12;;;;;;;2.41;2.21;;;;;;;19.43;60.02;100996.92;;;;-50
2021/10/25 09:06:12;;;;;;;3.01;2.25;;;;;;;19.44;60.02;100994.16;;;;-46
2021/10/25 09:09:12;;;;;;;2.22;2.02;;;;;;;19.45;60.09;100993.45;;;;-47
2021/10/25 09:12:15;;;;;;;2.65;2.25;;;;;;;19.45;60.10;100991.59;;;;-46
2021/10/25 09:15:12;;;;;;;2.42;2.22;;;;;;;19.46;60.07;100984.84;;;;-45
2021/10/25 09:18:12;;;;;;;3.31;2.33;;;;;;;19.46;60.06;100976.63;;;;-47
2021/10/25 09:21:13;;;;;;;3.75;2.19;;;;;;;19.46;60.06;100971.46;;;;-47
2021/10/25 09:24:12;;;;;;;3.73;2.23;;;;;;;19.45;59.90;100970.05;;;;-47
2021/10/25 09:27:12;;;;;;;3.06;2.09;;;;;;;19.46;59.93;100966.31;;;;-53
2021/10/25 09:30:12;;;;;;;3.48;2.17;;;;;;;19.46;59.74;100969.80;;;;-53
2021/10/25 09:33:18;;;;;;;2.49;2.25;;;;;;;19.48;60.04;100964.39;;;;-48
2021/10/25 09:36:14;;;;;;;3.48;2.27;;;;;;;19.51;59.77;100966.23;;;;-62
2021/10/25 09:39:16;;;;;;;2.78;2.31;;;;;;;19.55;59.95;100969.47;;;;-56
2021/10/25 09:42:22;;;;;;;4.71;2.17;;;;;;;19.59;59.96;100963.67;;;;-55
2021/10/25 09:45:41;;;;;;;2.49;2.01;;;;;;;19.66;60.11;100966.27;;;;-52
2021/10/25 09:51:12;;;;;;;2.30;2.10;;;;;;;19.75;60.10;100957.80;;;;-52
2021/10/25 09:54:12;;;;;;;3.31;2.17;;;;;;;19.79;60.23;100955.73;;;;-50
2021/10/25 09:57:13;;;;;;;2.24;2.04;;;;;;;19.85;60.23;100953.45;;;;-53
2021/10/25 10:00:12;;;;;;;3.19;1.98;;;;;;;19.89;60.21;100954.81;;;;-54
2021/10/25 10:03:12;;;;;;;2.67;2.05;;;;;;;19.94;60.22;100954.12;;;;-54
2021/10/25 10:06:12;;;;;;;2.29;2.09;;;;;;;19.97;60.19;100950.27;;;;-52
2021/10/25 10:09:12;;;;;;;2.24;2.04;;;;;;;20.02;60.23;100946.83;;;;-57
2021/10/25 10:12:12;;;;;;;2.09;1.87;;;;;;;20.05;60.25;100954.45;;;;-54
2021/10/25 10:15:12;;;;;;;2.15;1.95;;;;;;;20.07;60.06;100954.39;;;;-53
2021/10/25 10:18:12;;;;;;;2.47;1.98;;;;;;;20.12;60.16;100961.19;;;;-53
2021/10/25 10:21:12;;;;;;;2.32;2.12;;;;;;;20.14;60.29;100964.22;;;;-53
2021/10/25 10:24:12;;;;;;;2.06;1.83;;;;;;;20.17;60.35;100968.09;;;;-54
2021/10/25 10:27:13;;;;;;;2.57;2.05;;;;;;;20.19;60.19;100965.33;;;;-48
2021/10/25 10:30:12;;;;;;;2.21;1.99;;;;;;;20.22;60.27;100963.98;;;;-49
2021/10/25 10:33:11;;;;;;;2.11;1.91;;;;;;;20.24;60.06;100960.84;;;;-48
2021/10/25 10:36:12;;;;;;;1.98;1.84;;;;;;;20.27;60.15;100960.13;;;;-61
2021/10/25 10:39:12;;;;;;;2.34;1.94;;;;;;;20.28;59.91;100962.92;;;;-58
2021/10/25 10:42:12;;;;;;;2.07;1.81;;;;;;;20.32;60.14;100957.84;;;;-57
2021/10/25 10:45:12;;;;;;;3.21;2.27;;;;;;;20.31;58.24;100954.72;;;;-58
2021/10/25 10:48:13;;;;;;;6.19;2.17;;;;;;;20.33;58.55;100956.05;;;;-58
2021/10/25 10:51:15;;;;;;;4.63;2.44;;;;;;;20.36;58.97;100957.31;;;;-58
2021/10/25 10:54:21;;;;;;;6.01;2.53;;;;;;;20.36;58.75;100950.13;;;;-53
2021/10/25 10:57:27;;;;;;;2.98;2.53;;;;;;;20.35;57.74;100947.11;;;;-52
2021/10/25 11:00:12;;;;;;;3.53;2.21;;;;;;;20.35;57.90;100935.72;;;;-53
2021/10/25 11:03:12;;;;;;;3.97;2.20;;;;;;;20.37;57.92;100930.61;;;;-60
2021/10/25 11:06:16;;;;;;;4.33;2.38;;;;;;;20.37;57.77;100926.86;;;;-59
2021/10/25 11:09:12;;;;;;;6.45;2.45;;;;;;;20.39;58.52;100925.75;;;;-55
2021/10/25 11:12:17;;;;;;;2.85;2.16;;;;;;;20.41;58.51;100924.87;;;;-55
2021/10/25 11:15:15;;;;;;;3.23;2.29;;;;;;;20.41;58.08;100924.30;;;;-57
2021/10/25 11:18:12;;;;;;;5.48;2.37;;;;;;;20.41;57.77;100918.92;;;;-59
2021/10/25 11:21:12;;;;;;;2.77;2.32;;;;;;;20.42;57.46;100915.29;;;;-57
2021/10/25 11:24:13;;;;;;;3.56;2.41;;;;;;;20.42;57.22;100912.25;;;;-49
2021/10/25 11:27:12;;;;;;;3.41;2.30;;;;;;;20.42;56.94;100905.90;;;;-49
2021/10/25 11:30:12;;;;;;;4.03;2.28;;;;;;;20.43;57.10;100900.71;;;;-49
2021/10/25 11:33:12;;;;;;;3.18;2.41;;;;;;;20.43;56.80;100898.02;;;;-51
2021/10/25 11:36:12;;;;;;;2.61;2.19;;;;;;;20.43;56.82;100895.83;;;;-54
2021/10/25 11:39:12;;;;;;;3.12;2.38;;;;;;;20.44;56.53;100893.55;;;;-57
2021/10/25 11:42:12;;;;;;;2.67;2.44;;;;;;;20.44;56.41;100892.84;;;;-58
2021/10/25 11:45:12;;;;;;;3.04;2.60;;;;;;;20.45;56.31;100890.23;;;;-57
2021/10/25 11:48:12;;;;;;;2.51;2.25;;;;;;;20.45;56.52;100887.55;;;;-51
2021/10/25 11:51:12;;;;;;;2.61;2.29;;;;;;;20.46;56.05;100882.33;;;;-49
2021/10/25 11:54:12;;;;;;;2.71;2.37;;;;;;;20.47;56.02;100878.69;;;;-49
2021/10/25 11:57:12;;;;;;;3.31;2.31;;;;;;;20.48;56.03;100874.77;;;;-49
2021/10/25 12:00:12;;;;;;;2.65;2.32;;;;;;;20.48;55.87;100868.53;;;;-50
2021/10/25 12:03:12;;;;;;;3.19;2.31;;;;;;;20.50;55.87;100866.48;;;;-56
2021/10/25 12:06:12;;;;;;;2.81;2.45;;;;;;;20.50;55.71;100860.33;;;;-55
2021/10/25 12:09:12;;;;;;;2.97;2.43;;;;;;;20.51;55.92;100851.53;;;;-59
2021/10/25 12:12:15;;;;;;;2.91;2.45;;;;;;;20.51;55.66;100848.84;;;;-55
2021/10/25 12:15:12;;;;;;;2.95;2.41;;;;;;;20.52;55.86;100842.89;;;;-55
2021/10/25 12:18:12;;;;;;;3.05;2.39;;;;;;;20.53;55.64;100840.97;;;;-56
2021/10/25 12:21:14;;;;;;;2.67;2.41;;;;;;;20.53;55.25;100838.03;;;;-51
2021/10/25 12:24:12;;;;;;;5.61;2.47;;;;;;;20.53;56.55;100834.77;;;;-50
2021/10/25 12:27:12;;;;;;;4.48;2.43;;;;;;;20.57;56.83;100834.08;;;;-50
2021/10/25 12:30:12;;;;;;;5.35;2.69;;;;;;;20.56;55.86;100827.70;;;;-47
2021/10/25 12:33:12;;;;;;;6.67;2.69;;;;;;;20.58;56.05;100825.60;;;;-50
2021/10/25 12:36:11;;;;;;;6.04;2.52;;;;;;;20.60;56.66;100826.30;;;;-58
2021/10/25 12:39:12;;;;;;;3.84;2.31;;;;;;;20.61;56.77;100822.80;;;;-54
2021/10/25 12:42:13;;;;;;;3.25;2.37;;;;;;;20.60;56.79;100819.78;;;;-53
2021/10/25 12:45:12;;;;;;;5.05;2.40;;;;;;;20.59;56.96;100817.92;;;;-59
2021/10/25 12:48:12;;;;;;;4.44;2.39;;;;;;;20.59;56.93;100808.64;;;;-53
2021/10/25 12:51:12;;;;;;;5.35;2.40;;;;;;;20.59;57.13;100808.88;;;;-58
2021/10/25 12:54:12;;;;;;;5.09;2.17;;;;;;;20.60;57.30;100804.48;;;;-59
2021/10/25 12:57:12;;;;;;;2.96;2.12;;;;;;;20.59;57.27;100804.08;;;;-51
2021/10/25 13:00:11;;;;;;;7.27;2.25;;;;;;;20.59;57.49;100800.81;;;;-49
2021/10/25 13:03:12;;;;;;;4.35;2.30;;;;;;;20.59;57.62;100798.05;;;;-49
2021/10/25 13:06:12;;;;;;;4.19;2.48;;;;;;;20.60;57.69;100800.48;;;;-51
2021/10/25 13:09:12;;;;;;;4.09;2.43;;;;;;;20.60;57.74;100793.56;;;;-50
2021/10/25 13:12:12;;;;;;;3.09;2.20;;;;;;;20.60;57.83;100789.16;;;;-51
2021/10/25 13:15:11;;;;;;;3.95;2.21;;;;;;;20.61;57.88;100785.77;;;;-51
2021/10/25 13:18:12;;;;;;;2.57;2.21;;;;;;;20.60;57.97;100782.73;;;;-52
2021/10/25 13:21:12;;;;;;;2.51;2.19;;;;;;;20.61;58.01;100781.91;;;;-53
2021/10/25 13:24:12;;;;;;;5.24;2.39;;;;;;;20.61;58.07;100780.31;;;;-60
2021/10/25 13:27:12;;;;;;;2.43;2.21;;;;;;;20.61;58.08;100780.80;;;;-53
2021/10/25 13:30:11;;;;;;;2.39;2.17;;;;;;;20.62;58.13;100772.66;;;;-54
2021/10/25 13:33:12;;;;;;;3.04;2.24;;;;;;;20.63;58.18;100771.78;;;;-54
2021/10/25 13:36:12;;;;;;;2.56;2.20;;;;;;;20.63;58.16;100768.44;;;;-53
2021/10/25 13:39:13;;;;;;;2.25;2.05;;;;;;;20.63;58.26;100767.27;;;;-54
2021/10/25 13:42:12;;;;;;;2.77;2.15;;;;;;;20.64;58.25;100765.50;;;;-50
2021/10/25 13:45:12;;;;;;;3.05;2.11;;;;;;;20.64;58.26;100767.29;;;;-50
2021/10/25 13:48:14;;;;;;;2.38;2.15;;;;;;;20.64;58.32;100763.22;;;;-51
2021/10/25 13:51:12;;;;;;;3.25;2.01;;;;;;;20.65;58.33;100764.14;;;;-52
2021/10/25 13:54:12;;;;;;;2.88;2.24;;;;;;;20.65;58.37;100757.95;;;;-51
2021/10/25 13:57:12;;;;;;;2.20;2.00;;;;;;;20.65;58.38;100760.88;;;;-51
2021/10/25 14:00:12;;;;;;;2.15;1.97;;;;;;;20.66;58.39;100750.94;;;;-52
2021/10/25 14:03:12;;;;;;;2.43;2.05;;;;;;;20.66;58.44;100754.52;;;;-51
2021/10/25 14:06:12;;;;;;;2.97;2.09;;;;;;;20.67;58.53;100753.30;;;;-51
2021/10/25 14:09:12;;;;;;;2.31;2.11;;;;;;;20.66;58.48;100745.88;;;;-51
2021/10/25 14:12:18;;;;;;;2.03;1.87;;;;;;;20.67;58.45;100746.88;;;;-51
2021/10/25 14:15:21;;;;;;;2.81;2.14;;;;;;;20.67;58.48;100748.67;;;;-51
2021/10/25 14:18:12;;;;;;;2.89;1.92;;;;;;;20.68;58.52;100746.80;;;;-51
2021/10/25 14:21:14;;;;;;;2.47;1.92;;;;;;;20.68;58.55;100746.15;;;;-51
2021/10/25 14:24:11;;;;;;;2.44;2.08;;;;;;;20.69;58.55;100744.34;;;;-60
2021/10/25 14:27:12;;;;;;;2.40;2.05;;;;;;;20.69;58.57;100743.72;;;;-60
2021/10/25 14:30:12;;;;;;;2.11;1.88;;;;;;;20.69;58.57;100740.62;;;;-54
2021/10/25 14:33:12;;;;;;;2.23;2.02;;;;;;;20.70;58.57;100740.78;;;;-59
2021/10/25 14:36:12;;;;;;;2.08;1.87;;;;;;;20.70;58.57;100735.48;;;;-54
2021/10/25 14:39:19;;;;;;;2.27;1.99;;;;;;;20.70;58.63;100728.00;;;;-54
2021/10/25 14:42:19;;;;;;;2.83;2.11;;;;;;;20.70;58.64;100726.86;;;;-52
2021/10/25 14:45:17;;;;;;;2.27;1.90;;;;;;;20.71;58.67;100724.92;;;;-51
2021/10/25 14:48:25;;;;;;;2.34;1.89;;;;;;;20.71;58.68;100718.65;;;;-51
2021/10/25 14:54:18;;;;;;;2.59;1.99;;;;;;;20.71;58.70;100720.77;;;;-50
2021/10/25 14:57:13;;;;;;;2.52;2.01;;;;;;;20.71;58.72;100720.44;;;;-51
2021/10/25 15:00:12;;;;;;;2.25;1.97;;;;;;;20.72;58.74;100710.49;;;;-51
2021/10/25 15:03:12;;;;;;;2.20;2.00;;;;;;;20.72;58.70;100707.32;;;;-60
2021/10/25 15:06:12;;;;;;;2.35;2.04;;;;;;;20.73;58.73;100707.64;;;;-60
2021/10/25 15:09:12;;;;;;;2.04;1.87;;;;;;;20.73;58.73;100706.36;;;;-59
2021/10/25 15:12:12;;;;;;;2.17;1.97;;;;;;;20.74;58.72;100705.70;;;;-59
2021/10/25 15:15:12;;;;;;;2.20;2.00;;;;;;;20.72;58.77;100703.66;;;;-59
2021/10/25 15:18:12;;;;;;;2.14;1.87;;;;;;;20.74;58.72;100706.68;;;;-60
2021/10/25 15:21:14;;;;;;;2.05;1.91;;;;;;;20.74;58.76;100703.66;;;;-59
2021/10/25 15:24:12;;;;;;;2.08;1.90;;;;;;;20.75;58.78;100700.97;;;;-60
2021/10/25 15:27:14;;;;;;;2.01;1.80;;;;;;;20.74;58.82;100701.96;;;;-59
2021/10/25 15:30:12;;;;;;;2.13;1.85;;;;;;;20.75;58.83;100702.11;;;;-60
2021/10/25 15:33:12;;;;;;;1.99;1.80;;;;;;;20.75;58.84;100695.92;;;;-59
2021/10/25 15:36:12;;;;;;;1.91;1.81;;;;;;;20.75;58.84;100693.18;;;;-60
2021/10/25 15:39:11;;;;;;;2.11;1.91;;;;;;;20.77;58.81;100692.94;;;;-60
2021/10/25 15:42:12;;;;;;;6.26;2.07;;;;;;;20.78;59.01;100693.18;;;;-53
2021/10/25 15:45:12;;;;;;;7.17;2.11;;;;;;;20.78;58.82;100690.73;;;;-55
2021/10/25 15:48:12;;;;;;;2.39;1.99;;;;;;;20.79;58.87;100690.97;;;;-53
2021/10/25 15:51:12;;;;;;;4.63;2.03;;;;;;;20.81;58.97;100688.70;;;;-53
2021/10/25 15:54:12;;;;;;;3.62;2.20;;;;;;;20.82;58.91;100683.42;;;;-53
2021/10/25 15:57:12;;;;;;;2.28;2.05;;;;;;;20.83;58.50;100686.51;;;;-57
2021/10/25 16:00:12;;;;;;;3.41;2.30;;;;;;;20.85;58.44;100684.16;;;;-50
2021/10/25 16:03:11;;;;;;;3.14;1.97;;;;;;;20.86;58.60;100682.96;;;;-49
2021/10/25 16:06:12;;;;;;;4.00;2.44;;;;;;;20.88;59.23;100685.73;;;;-50
2021/10/25 16:09:11;;;;;;;2.73;2.11;;;;;;;20.88;59.00;100690.22;;;;-50
2021/10/25 16:12:15;;;;;;;2.65;2.25;;;;;;;20.89;58.64;100689.80;;;;-51
2021/10/25 16:15:12;;;;;;;2.23;1.92;;;;;;;20.91;58.85;100689.56;;;;-53
2021/10/25 16:18:12;;;;;;;3.49;2.21;;;;;;;20.91;59.21;100688.42;;;;-53
2021/10/25 16:21:12;;;;;;;3.09;2.10;;;;;;;20.91;58.84;100691.27;;;;-54
2021/10/25 16:24:11;;;;;;;2.93;2.15;;;;;;;20.94;59.03;100692.69;;;;-53
2021/10/25 16:27:11;;;;;;;2.43;2.17;;;;;;;20.95;59.02;100695.05;;;;-52
2021/10/25 16:30:12;;;;;;;2.76;2.08;;;;;;;20.97;58.78;100697.98;;;;-54
2021/10/25 16:33:12;;;;;;;5.01;2.25;;;;;;;20.98;58.62;100704.03;;;;-52
2021/10/25 16:36:12;;;;;;;3.49;2.11;;;;;;;20.97;58.59;100699.45;;;;-58
2021/10/25 16:39:12;;;;;;;3.68;2.03;;;;;;;20.98;58.57;100705.08;;;;-52
2021/10/25 16:42:12;;;;;;;3.81;2.04;;;;;;;20.99;58.49;100703.86;;;;-48
2021/10/25 16:45:12;;;;;;;6.54;2.21;;;;;;;20.99;58.53;100699.95;;;;-47
2021/10/25 16:48:15;;;;;;;2.75;2.18;;;;;;;20.99;58.44;100702.06;;;;-47
2021/10/25 16:51:15;;;;;;;2.27;2.04;;;;;;;20.99;58.48;100700.67;;;;-47
2021/10/25 16:54:36;;;;;;;2.39;2.03;;;;;;;20.99;58.48;100701.33;;;;-45
2021/10/25 17:03:31;;;;;;;3.20;2.28;;;;;;;21.04;58.67;100703.78;;;;-56
2021/10/25 17:06:33;;;;;;;3.24;2.30;;;;;;;21.06;58.74;100708.84;;;;-59
2021/10/25 17:09:23;;;;;;;3.56;2.23;;;;;;;21.07;58.70;100709.27;;;;-57
2021/10/25 17:12:12;;;;;;;3.71;2.15;;;;;;;21.09;58.83;100712.63;;;;-56
2021/10/25 17:15:13;;;;;;;3.64;2.21;;;;;;;21.12;58.74;100708.47;;;;-57
2021/10/25 17:18:11;;;;;;;3.11;2.19;;;;;;;21.13;58.87;100709.62;;;;-58
2021/10/25 17:21:14;;;;;;;4.21;2.37;;;;;;;21.14;58.90;100716.20;;;;-44
2021/10/25 17:24:23;;;;;;;2.95;2.30;;;;;;;21.15;58.95;100718.59;;;;-46
2021/10/25 17:27:12;;;;;;;3.90;2.48;;;;;;;21.18;58.91;100721.60;;;;-48
2021/10/25 17:30:12;;;;;;;2.18;2.03;;;;;;;21.19;58.96;100722.19;;;;-50
2021/10/25 17:33:11;;;;;;;2.64;2.10;;;;;;;21.20;59.04;100718.60;;;;-49
2021/10/25 17:36:12;;;;;;;3.82;2.32;;;;;;;21.21;58.97;100723.10;;;;-51
2021/10/25 17:39:11;;;;;;;3.22;2.30;;;;;;;21.22;58.87;100726.92;;;;-52
2021/10/25 17:42:12;;;;;;;2.73;2.34;;;;;;;21.23;58.97;100721.80;;;;-49
2021/10/25 17:45:12;;;;;;;2.55;2.18;;;;;;;21.23;59.01;100717.89;;;;-50
2021/10/25 17:48:12;;;;;;;3.04;2.39;;;;;;;21.25;59.08;100724.80;;;;-51
2021/10/25 17:51:12;;;;;;;3.01;2.28;;;;;;;21.27;59.15;100725.21;;;;-50
2021/10/25 17:54:12;;;;;;;3.00;2.15;;;;;;;21.26;58.95;100727.42;;;;-50
2021/10/25 17:57:13;;;;;;;3.11;2.17;;;;;;;21.28;58.91;100725.72;;;;-51
2021/10/25 18:00:12;;;;;;;2.96;2.24;;;;;;;21.29;58.99;100735.89;;;;-50
2021/10/25 18:03:12;;;;;;;3.51;2.20;;;;;;;21.29;59.02;100741.95;;;;-50
2021/10/25 18:06:12;;;;;;;3.44;2.40;;;;;;;21.30;58.90;100743.17;;;;-53